sensor_id;sensor_type;location;lat;lon;timestamp;temperature;humidity
44537;DHT22;30245;51.966;6.292;2023-01-25T00:01:54;7.70;53.60
44537;DHT22;30245;51.966;6.292;2023-01-25T00:04:20;7.70;53.60
44537;DHT22;30245;51.966;6.292;2023-01-25T00:06:47;7.70;54.10
44537;DHT22;30245;51.966;6.292;2023-01-25T00:09:13;7.80;53.40
44537;DHT22;30245;51.966;6.292;2023-01-25T00:11:39;7.80;53.30
44537;DHT22;30245;51.966;6.292;2023-01-25T00:14:05;7.80;53.40
44537;DHT22;30245;51.966;6.292;2023-01-25T00:16:31;7.80;53.50
44537;DHT22;30245;51.966;6.292;2023-01-25T00:18:56;7.80;53.50
44537;DHT22;30245;51.966;6.292;2023-01-25T00:21:23;7.80;53.40
44537;DHT22;30245;51.966;6.292;2023-01-25T00:23:49;7.70;53.30
44537;DHT22;30245;51.966;6.292;2023-01-25T00:26:15;7.80;53.40
44537;DHT22;30245;51.966;6.292;2023-01-25T00:28:41;7.80;53.30
44537;DHT22;30245;51.966;6.292;2023-01-25T00:31:10;7.90;53.20
44537;DHT22;30245;51.966;6.292;2023-01-25T00:33:49;7.90;53.10
44537;DHT22;30245;51.966;6.292;2023-01-25T00:38:52;7.90;53.00
44537;DHT22;30245;51.966;6.292;2023-01-25T00:41:18;7.90;53.00
44537;DHT22;30245;51.966;6.292;2023-01-25T00:43:44;7.90;52.90
44537;DHT22;30245;51.966;6.292;2023-01-25T00:46:14;7.80;53.00
44537;DHT22;30245;51.966;6.292;2023-01-25T00:48:40;7.80;53.20
44537;DHT22;30245;51.966;6.292;2023-01-25T00:51:05;7.80;53.20
44537;DHT22;30245;51.966;6.292;2023-01-25T00:53:31;7.80;53.30
44537;DHT22;30245;51.966;6.292;2023-01-25T00:55:57;7.80;53.30
44537;DHT22;30245;51.966;6.292;2023-01-25T00:58:22;7.80;53.30
44537;DHT22;30245;51.966;6.292;2023-01-25T01:00:48;7.70;53.30
44537;DHT22;30245;51.966;6.292;2023-01-25T01:03:14;7.60;53.40
44537;DHT22;30245;51.966;6.292;2023-01-25T01:05:40;7.60;53.40
44537;DHT22;30245;51.966;6.292;2023-01-25T01:08:05;7.50;53.50
44537;DHT22;30245;51.966;6.292;2023-01-25T01:10:31;7.40;53.50
44537;DHT22;30245;51.966;6.292;2023-01-25T01:12:56;7.40;53.70
44537;DHT22;30245;51.966;6.292;2023-01-25T01:15:22;7.40;53.80
44537;DHT22;30245;51.966;6.292;2023-01-25T01:17:48;7.50;53.70
44537;DHT22;30245;51.966;6.292;2023-01-25T01:20:13;7.50;53.50
44537;DHT22;30245;51.966;6.292;2023-01-25T01:22:39;7.60;53.40
44537;DHT22;30245;51.966;6.292;2023-01-25T01:25:05;7.60;53.30
44537;DHT22;30245;51.966;6.292;2023-01-25T01:27:31;7.60;54.00
44537;DHT22;30245;51.966;6.292;2023-01-25T01:29:56;7.50;53.50
44537;DHT22;30245;51.966;6.292;2023-01-25T01:32:22;7.50;53.70
44537;DHT22;30245;51.966;6.292;2023-01-25T01:34:47;7.50;53.80
44537;DHT22;30245;51.966;6.292;2023-01-25T01:37:13;7.50;53.70
44537;DHT22;30245;51.966;6.292;2023-01-25T01:39:38;7.40;53.60
44537;DHT22;30245;51.966;6.292;2023-01-25T01:42:04;7.50;54.30
44537;DHT22;30245;51.966;6.292;2023-01-25T01:44:44;7.50;53.70
44537;DHT22;30245;51.966;6.292;2023-01-25T01:47:38;7.50;53.60
44537;DHT22;30245;51.966;6.292;2023-01-25T01:50:11;7.50;53.60
44537;DHT22;30245;51.966;6.292;2023-01-25T01:52:41;7.50;53.50
44537;DHT22;30245;51.966;6.292;2023-01-25T01:55:13;7.40;53.60
44537;DHT22;30245;51.966;6.292;2023-01-25T01:57:52;7.40;53.60
44537;DHT22;30245;51.966;6.292;2023-01-25T02:00:26;7.30;53.60
44537;DHT22;30245;51.966;6.292;2023-01-25T02:02:53;7.30;53.70
44537;DHT22;30245;51.966;6.292;2023-01-25T02:08:27;7.20;53.80
44537;DHT22;30245;51.966;6.292;2023-01-25T02:10:54;7.20;53.90
44537;DHT22;30245;51.966;6.292;2023-01-25T02:13:20;7.30;54.00
44537;DHT22;30245;51.966;6.292;2023-01-25T02:15:49;7.30;53.90
44537;DHT22;30245;51.966;6.292;2023-01-25T02:18:16;7.40;53.80
44537;DHT22;30245;51.966;6.292;2023-01-25T02:20:45;7.40;53.60
44537;DHT22;30245;51.966;6.292;2023-01-25T02:26:01;7.50;53.50
44537;DHT22;30245;51.966;6.292;2023-01-25T02:28:46;7.50;53.50
44537;DHT22;30245;51.966;6.292;2023-01-25T02:31:12;7.60;53.50
44537;DHT22;30245;51.966;6.292;2023-01-25T02:33:38;7.50;53.40
44537;DHT22;30245;51.966;6.292;2023-01-25T02:38:53;7.50;53.40
44537;DHT22;30245;51.966;6.292;2023-01-25T02:41:38;7.40;53.40
44537;DHT22;30245;51.966;6.292;2023-01-25T02:44:11;7.30;53.50
44537;DHT22;30245;51.966;6.292;2023-01-25T02:46:39;7.30;53.60
44537;DHT22;30245;51.966;6.292;2023-01-25T02:49:07;7.20;53.70
44537;DHT22;30245;51.966;6.292;2023-01-25T02:51:35;7.20;53.80
44537;DHT22;30245;51.966;6.292;2023-01-25T02:54:03;7.20;53.90
44537;DHT22;30245;51.966;6.292;2023-01-25T02:56:29;7.20;53.90
44537;DHT22;30245;51.966;6.292;2023-01-25T02:58:55;7.20;54.00
44537;DHT22;30245;51.966;6.292;2023-01-25T03:01:21;7.20;54.10
44537;DHT22;30245;51.966;6.292;2023-01-25T03:03:47;7.10;54.20
44537;DHT22;30245;51.966;6.292;2023-01-25T03:06:12;7.10;54.10
44537;DHT22;30245;51.966;6.292;2023-01-25T03:08:38;7.10;54.20
44537;DHT22;30245;51.966;6.292;2023-01-25T03:11:05;7.10;54.20
44537;DHT22;30245;51.966;6.292;2023-01-25T03:13:32;7.00;54.30
44537;DHT22;30245;51.966;6.292;2023-01-25T03:16:00;7.00;54.40
44537;DHT22;30245;51.966;6.292;2023-01-25T03:18:26;7.00;54.40
44537;DHT22;30245;51.966;6.292;2023-01-25T03:20:52;7.00;54.50
44537;DHT22;30245;51.966;6.292;2023-01-25T03:23:18;6.90;54.30
44537;DHT22;30245;51.966;6.292;2023-01-25T03:25:43;6.90;54.40
44537;DHT22;30245;51.966;6.292;2023-01-25T03:28:09;6.90;54.50
44537;DHT22;30245;51.966;6.292;2023-01-25T03:30:34;6.90;54.40
44537;DHT22;30245;51.966;6.292;2023-01-25T03:33:00;7.00;54.40
44537;DHT22;30245;51.966;6.292;2023-01-25T03:35:25;7.10;54.20
44537;DHT22;30245;51.966;6.292;2023-01-25T03:37:51;7.20;54.10
44537;DHT22;30245;51.966;6.292;2023-01-25T03:40:17;7.20;54.00
44537;DHT22;30245;51.966;6.292;2023-01-25T03:42:42;7.20;53.90
44537;DHT22;30245;51.966;6.292;2023-01-25T03:45:08;7.20;53.90
44537;DHT22;30245;51.966;6.292;2023-01-25T03:47:34;7.10;53.90
44537;DHT22;30245;51.966;6.292;2023-01-25T03:49:59;7.00;54.00
44537;DHT22;30245;51.966;6.292;2023-01-25T03:52:25;6.90;54.10
44537;DHT22;30245;51.966;6.292;2023-01-25T03:54:51;6.80;54.30
44537;DHT22;30245;51.966;6.292;2023-01-25T03:57:17;6.80;54.60
44537;DHT22;30245;51.966;6.292;2023-01-25T03:59:42;6.80;54.60
44537;DHT22;30245;51.966;6.292;2023-01-25T04:02:08;6.90;54.60
44537;DHT22;30245;51.966;6.292;2023-01-25T04:04:34;6.90;54.40
44537;DHT22;30245;51.966;6.292;2023-01-25T04:07:00;6.90;54.30
44537;DHT22;30245;51.966;6.292;2023-01-25T04:09:25;6.80;54.30
44537;DHT22;30245;51.966;6.292;2023-01-25T04:11:55;6.80;54.30
44537;DHT22;30245;51.966;6.292;2023-01-25T04:14:21;6.80;54.40
44537;DHT22;30245;51.966;6.292;2023-01-25T04:16:47;6.70;54.40
44537;DHT22;30245;51.966;6.292;2023-01-25T04:19:12;6.60;54.70
44537;DHT22;30245;51.966;6.292;2023-01-25T04:21:38;6.50;54.90
44537;DHT22;30245;51.966;6.292;2023-01-25T04:24:04;6.50;54.90
44537;DHT22;30245;51.966;6.292;2023-01-25T04:26:29;6.60;54.80
44537;DHT22;30245;51.966;6.292;2023-01-25T04:28:55;6.70;55.20
44537;DHT22;30245;51.966;6.292;2023-01-25T04:31:20;6.80;54.40
44537;DHT22;30245;51.966;6.292;2023-01-25T04:33:46;6.80;54.30
44537;DHT22;30245;51.966;6.292;2023-01-25T04:36:12;6.80;54.30
44537;DHT22;30245;51.966;6.292;2023-01-25T04:38:37;6.80;54.30
44537;DHT22;30245;51.966;6.292;2023-01-25T04:41:03;6.70;54.30
44537;DHT22;30245;51.966;6.292;2023-01-25T04:43:29;6.60;54.60
44537;DHT22;30245;51.966;6.292;2023-01-25T04:45:55;6.50;54.70
44537;DHT22;30245;51.966;6.292;2023-01-25T04:48:20;6.40;54.80
44537;DHT22;30245;51.966;6.292;2023-01-25T04:50:46;6.40;55.20
44537;DHT22;30245;51.966;6.292;2023-01-25T04:53:12;6.40;55.20
44537;DHT22;30245;51.966;6.292;2023-01-25T04:55:38;6.40;55.20
44537;DHT22;30245;51.966;6.292;2023-01-25T04:58:04;6.50;55.00
44537;DHT22;30245;51.966;6.292;2023-01-25T05:00:30;6.60;54.80
44537;DHT22;30245;51.966;6.292;2023-01-25T05:02:56;6.60;54.60
44537;DHT22;30245;51.966;6.292;2023-01-25T05:05:22;6.60;54.60
44537;DHT22;30245;51.966;6.292;2023-01-25T05:07:48;6.70;54.40
44537;DHT22;30245;51.966;6.292;2023-01-25T05:10:13;6.70;54.40
44537;DHT22;30245;51.966;6.292;2023-01-25T05:12:39;6.70;54.30
44537;DHT22;30245;51.966;6.292;2023-01-25T05:15:05;6.70;54.40
44537;DHT22;30245;51.966;6.292;2023-01-25T05:17:31;6.70;54.50
44537;DHT22;30245;51.966;6.292;2023-01-25T05:19:57;6.70;54.50
44537;DHT22;30245;51.966;6.292;2023-01-25T05:22:22;6.70;54.40
44537;DHT22;30245;51.966;6.292;2023-01-25T05:24:48;6.80;54.40
44537;DHT22;30245;51.966;6.292;2023-01-25T05:27:17;6.70;54.20
44537;DHT22;30245;51.966;6.292;2023-01-25T05:29:43;6.60;54.50
44537;DHT22;30245;51.966;6.292;2023-01-25T05:32:18;6.60;54.60
44537;DHT22;30245;51.966;6.292;2023-01-25T05:34:44;6.60;54.60
44537;DHT22;30245;51.966;6.292;2023-01-25T05:37:12;6.50;54.70
44537;DHT22;30245;51.966;6.292;2023-01-25T05:39:38;6.50;54.70
44537;DHT22;30245;51.966;6.292;2023-01-25T05:42:13;6.50;54.80
44537;DHT22;30245;51.966;6.292;2023-01-25T05:44:39;6.50;54.70
44537;DHT22;30245;51.966;6.292;2023-01-25T05:47:05;6.50;54.70
44537;DHT22;30245;51.966;6.292;2023-01-25T05:49:30;6.60;54.70
44537;DHT22;30245;51.966;6.292;2023-01-25T05:51:56;6.60;54.50
44537;DHT22;30245;51.966;6.292;2023-01-25T05:54:22;6.60;54.50
44537;DHT22;30245;51.966;6.292;2023-01-25T05:56:50;6.70;54.40
44537;DHT22;30245;51.966;6.292;2023-01-25T05:59:16;6.70;54.30
44537;DHT22;30245;51.966;6.292;2023-01-25T06:01:42;6.70;54.30
44537;DHT22;30245;51.966;6.292;2023-01-25T06:04:12;6.80;54.30
44537;DHT22;30245;51.966;6.292;2023-01-25T06:06:38;6.80;54.30
44537;DHT22;30245;51.966;6.292;2023-01-25T06:09:04;6.70;54.50
44537;DHT22;30245;51.966;6.292;2023-01-25T06:11:29;6.50;54.60
44537;DHT22;30245;51.966;6.292;2023-01-25T06:13:55;6.40;54.90
44537;DHT22;30245;51.966;6.292;2023-01-25T06:16:21;6.30;55.20
44537;DHT22;30245;51.966;6.292;2023-01-25T06:18:46;6.30;55.20
44537;DHT22;30245;51.966;6.292;2023-01-25T06:21:12;6.30;55.20
44537;DHT22;30245;51.966;6.292;2023-01-25T06:23:38;6.30;55.20
44537;DHT22;30245;51.966;6.292;2023-01-25T06:26:06;6.30;55.10
44537;DHT22;30245;51.966;6.292;2023-01-25T06:28:33;6.40;55.00
44537;DHT22;30245;51.966;6.292;2023-01-25T06:31:14;6.40;54.90
44537;DHT22;30245;51.966;6.292;2023-01-25T06:33:41;6.40;55.00
44537;DHT22;30245;51.966;6.292;2023-01-25T06:36:10;6.40;55.00
44537;DHT22;30245;51.966;6.292;2023-01-25T06:38:36;6.40;54.90
44537;DHT22;30245;51.966;6.292;2023-01-25T06:41:03;6.30;54.80
44537;DHT22;30245;51.966;6.292;2023-01-25T06:43:30;6.30;54.80
44537;DHT22;30245;51.966;6.292;2023-01-25T06:46:01;6.30;54.90
44537;DHT22;30245;51.966;6.292;2023-01-25T06:48:28;6.30;55.00
44537;DHT22;30245;51.966;6.292;2023-01-25T06:50:59;6.30;55.00
44537;DHT22;30245;51.966;6.292;2023-01-25T06:53:27;6.30;55.10
44537;DHT22;30245;51.966;6.292;2023-01-25T06:55:57;6.30;54.90
44537;DHT22;30245;51.966;6.292;2023-01-25T06:58:23;6.40;54.90
44537;DHT22;30245;51.966;6.292;2023-01-25T07:00:48;6.30;54.90
44537;DHT22;30245;51.966;6.292;2023-01-25T07:03:14;6.30;54.90
44537;DHT22;30245;51.966;6.292;2023-01-25T07:05:39;6.30;55.00
44537;DHT22;30245;51.966;6.292;2023-01-25T07:08:05;6.30;55.00
44537;DHT22;30245;51.966;6.292;2023-01-25T07:10:30;6.20;55.10
44537;DHT22;30245;51.966;6.292;2023-01-25T07:12:56;6.30;55.10
44537;DHT22;30245;51.966;6.292;2023-01-25T07:15:22;6.40;54.90
44537;DHT22;30245;51.966;6.292;2023-01-25T07:17:48;6.40;54.70
44537;DHT22;30245;51.966;6.292;2023-01-25T07:20:13;6.40;54.70
44537;DHT22;30245;51.966;6.292;2023-01-25T07:22:39;6.30;54.70
44537;DHT22;30245;51.966;6.292;2023-01-25T07:25:05;6.40;54.90
44537;DHT22;30245;51.966;6.292;2023-01-25T07:27:33;6.30;54.80
44537;DHT22;30245;51.966;6.292;2023-01-25T07:29:59;6.30;54.90
44537;DHT22;30245;51.966;6.292;2023-01-25T07:32:25;6.20;55.00
44537;DHT22;30245;51.966;6.292;2023-01-25T07:34:51;6.30;54.90
44537;DHT22;30245;51.966;6.292;2023-01-25T07:37:17;6.40;54.90
44537;DHT22;30245;51.966;6.292;2023-01-25T07:39:42;6.30;54.80
44537;DHT22;30245;51.966;6.292;2023-01-25T07:42:14;6.30;54.80
44537;DHT22;30245;51.966;6.292;2023-01-25T07:44:40;6.20;54.90
44537;DHT22;30245;51.966;6.292;2023-01-25T07:47:05;6.10;54.90
44537;DHT22;30245;51.966;6.292;2023-01-25T07:49:31;6.10;55.00
44537;DHT22;30245;51.966;6.292;2023-01-25T07:51:57;6.10;55.10
44537;DHT22;30245;51.966;6.292;2023-01-25T07:54:23;6.10;55.20
44537;DHT22;30245;51.966;6.292;2023-01-25T07:56:48;6.10;55.30
44537;DHT22;30245;51.966;6.292;2023-01-25T07:59:14;6.20;55.20
44537;DHT22;30245;51.966;6.292;2023-01-25T08:01:39;6.20;55.00
44537;DHT22;30245;51.966;6.292;2023-01-25T08:04:06;6.20;55.00
44537;DHT22;30245;51.966;6.292;2023-01-25T08:06:34;6.30;55.00
44537;DHT22;30245;51.966;6.292;2023-01-25T08:09:11;6.20;55.00
44537;DHT22;30245;51.966;6.292;2023-01-25T08:11:37;6.30;55.00
44537;DHT22;30245;51.966;6.292;2023-01-25T08:14:02;6.40;54.80
44537;DHT22;30245;51.966;6.292;2023-01-25T08:16:29;6.40;54.60
44537;DHT22;30245;51.966;6.292;2023-01-25T08:18:59;6.50;54.50
44537;DHT22;30245;51.966;6.292;2023-01-25T08:21:25;6.40;54.50
44537;DHT22;30245;51.966;6.292;2023-01-25T08:23:57;6.40;54.60
44537;DHT22;30245;51.966;6.292;2023-01-25T08:26:23;6.30;54.80
44537;DHT22;30245;51.966;6.292;2023-01-25T08:28:49;6.20;55.00
44537;DHT22;30245;51.966;6.292;2023-01-25T08:31:20;6.20;55.10
44537;DHT22;30245;51.966;6.292;2023-01-25T08:33:47;6.20;55.60
44537;DHT22;30245;51.966;6.292;2023-01-25T08:36:13;6.20;54.90
44537;DHT22;30245;51.966;6.292;2023-01-25T08:38:40;6.20;54.90
44537;DHT22;30245;51.966;6.292;2023-01-25T08:41:07;6.00;55.10
44537;DHT22;30245;51.966;6.292;2023-01-25T08:43:33;5.90;55.50
44537;DHT22;30245;51.966;6.292;2023-01-25T08:45:59;5.80;55.70
44537;DHT22;30245;51.966;6.292;2023-01-25T08:48:25;5.80;55.90
44537;DHT22;30245;51.966;6.292;2023-01-25T08:50:50;5.80;55.90
44537;DHT22;30245;51.966;6.292;2023-01-25T08:53:16;5.90;55.70
44537;DHT22;30245;51.966;6.292;2023-01-25T08:55:41;5.90;55.60
44537;DHT22;30245;51.966;6.292;2023-01-25T08:58:12;6.00;55.70
44537;DHT22;30245;51.966;6.292;2023-01-25T09:00:39;6.10;55.50
44537;DHT22;30245;51.966;6.292;2023-01-25T09:03:06;6.10;55.30
44537;DHT22;30245;51.966;6.292;2023-01-25T09:05:37;6.10;55.30
44537;DHT22;30245;51.966;6.292;2023-01-25T09:08:05;6.10;55.30
44537;DHT22;30245;51.966;6.292;2023-01-25T09:10:31;6.00;55.40
44537;DHT22;30245;51.966;6.292;2023-01-25T09:12:57;5.90;55.60
44537;DHT22;30245;51.966;6.292;2023-01-25T09:15:22;5.90;55.60
44537;DHT22;30245;51.966;6.292;2023-01-25T09:17:53;6.00;55.60
44537;DHT22;30245;51.966;6.292;2023-01-25T09:20:19;6.10;55.50
44537;DHT22;30245;51.966;6.292;2023-01-25T09:22:45;6.20;55.30
44537;DHT22;30245;51.966;6.292;2023-01-25T09:25:11;6.30;55.20
44537;DHT22;30245;51.966;6.292;2023-01-25T09:27:36;6.40;55.10
44537;DHT22;30245;51.966;6.292;2023-01-25T09:30:04;6.40;54.90
44537;DHT22;30245;51.966;6.292;2023-01-25T09:32:29;6.50;54.80
44537;DHT22;30245;51.966;6.292;2023-01-25T09:34:55;6.50;54.70
44537;DHT22;30245;51.966;6.292;2023-01-25T09:37:21;6.50;54.70
44537;DHT22;30245;51.966;6.292;2023-01-25T09:39:46;6.50;54.80
44537;DHT22;30245;51.966;6.292;2023-01-25T09:48:13;6.20;55.20
44537;DHT22;30245;51.966;6.292;2023-01-25T09:53:47;6.20;55.40
44537;DHT22;30245;51.966;6.292;2023-01-25T09:58:43;6.40;55.10
44537;DHT22;30245;51.966;6.292;2023-01-25T10:01:24;6.40;54.90
44537;DHT22;30245;51.966;6.292;2023-01-25T10:03:57;6.40;55.00
44537;DHT22;30245;51.966;6.292;2023-01-25T10:06:38;6.30;55.10
44537;DHT22;30245;51.966;6.292;2023-01-25T10:09:26;6.40;55.10
44537;DHT22;30245;51.966;6.292;2023-01-25T10:11:57;6.40;55.00
44537;DHT22;30245;51.966;6.292;2023-01-25T10:14:23;6.50;54.90
44537;DHT22;30245;51.966;6.292;2023-01-25T10:17:03;6.60;54.70
44537;DHT22;30245;51.966;6.292;2023-01-25T10:19:43;6.60;54.60
44537;DHT22;30245;51.966;6.292;2023-01-25T10:22:19;6.60;54.60
44537;DHT22;30245;51.966;6.292;2023-01-25T10:25:35;6.50;54.80
44537;DHT22;30245;51.966;6.292;2023-01-25T10:28:08;6.50;55.00
44537;DHT22;30245;51.966;6.292;2023-01-25T10:31:05;6.40;55.00
44537;DHT22;30245;51.966;6.292;2023-01-25T10:33:34;6.50;54.90
44537;DHT22;30245;51.966;6.292;2023-01-25T10:36:03;6.50;54.90
44537;DHT22;30245;51.966;6.292;2023-01-25T10:38:43;6.50;54.80
44537;DHT22;30245;51.966;6.292;2023-01-25T10:41:20;6.50;54.70
44537;DHT22;30245;51.966;6.292;2023-01-25T10:43:47;6.50;54.80
44537;DHT22;30245;51.966;6.292;2023-01-25T10:46:23;6.50;54.80
44537;DHT22;30245;51.966;6.292;2023-01-25T10:48:49;6.50;54.80
44537;DHT22;30245;51.966;6.292;2023-01-25T10:51:30;6.50;54.70
44537;DHT22;30245;51.966;6.292;2023-01-25T10:54:00;6.50;54.80
44537;DHT22;30245;51.966;6.292;2023-01-25T10:56:27;6.50;54.80
44537;DHT22;30245;51.966;6.292;2023-01-25T10:59:06;6.60;54.70
44537;DHT22;30245;51.966;6.292;2023-01-25T11:01:34;6.60;54.60
44537;DHT22;30245;51.966;6.292;2023-01-25T11:04:01;6.60;54.50
44537;DHT22;30245;51.966;6.292;2023-01-25T11:06:38;6.60;54.50
44537;DHT22;30245;51.966;6.292;2023-01-25T11:12:14;6.50;54.50
44537;DHT22;30245;51.966;6.292;2023-01-25T11:14:41;6.60;54.60
44537;DHT22;30245;51.966;6.292;2023-01-25T11:17:21;6.50;54.50
44537;DHT22;30245;51.966;6.292;2023-01-25T11:19:47;6.50;54.60
44537;DHT22;30245;51.966;6.292;2023-01-25T11:22:21;6.50;54.70
44537;DHT22;30245;51.966;6.292;2023-01-25T11:24:50;6.50;54.60
44537;DHT22;30245;51.966;6.292;2023-01-25T11:27:26;6.60;54.50
44537;DHT22;30245;51.966;6.292;2023-01-25T11:32:30;6.70;54.30
44537;DHT22;30245;51.966;6.292;2023-01-25T11:34:56;6.70;54.50
44537;DHT22;30245;51.966;6.292;2023-01-25T12:06:49;5.90;56.10
44537;DHT22;30245;51.966;6.292;2023-01-25T12:09:58;5.90;56.00
44537;DHT22;30245;51.966;6.292;2023-01-25T12:12:36;6.00;55.80
44537;DHT22;30245;51.966;6.292;2023-01-25T12:15:54;6.00;55.70
44537;DHT22;30245;51.966;6.292;2023-01-25T12:21:05;6.20;55.50
44537;DHT22;30245;51.966;6.292;2023-01-25T12:23:44;6.20;55.40
44537;DHT22;30245;51.966;6.292;2023-01-25T12:26:27;6.20;55.20
44537;DHT22;30245;51.966;6.292;2023-01-25T12:29:13;6.10;55.30
44537;DHT22;30245;51.966;6.292;2023-01-25T12:34:18;6.00;55.70
44537;DHT22;30245;51.966;6.292;2023-01-25T12:36:47;6.10;55.80
44537;DHT22;30245;51.966;6.292;2023-01-25T12:39:24;6.20;55.70
44537;DHT22;30245;51.966;6.292;2023-01-25T12:44:41;6.30;55.30
44537;DHT22;30245;51.966;6.292;2023-01-25T12:47:27;6.30;55.20
44537;DHT22;30245;51.966;6.292;2023-01-25T12:50:10;6.20;55.30
44537;DHT22;30245;51.966;6.292;2023-01-25T12:52:44;6.10;56.20
44537;DHT22;30245;51.966;6.292;2023-01-25T12:55:16;6.20;55.70
44537;DHT22;30245;51.966;6.292;2023-01-25T13:03:27;6.30;55.40
44537;DHT22;30245;51.966;6.292;2023-01-25T13:09:23;6.30;55.40
44537;DHT22;30245;51.966;6.292;2023-01-25T13:11:50;6.10;55.70
44537;DHT22;30245;51.966;6.292;2023-01-25T13:16:52;6.00;55.90
44537;DHT22;30245;51.966;6.292;2023-01-25T13:21:46;6.00;55.80
44537;DHT22;30245;51.966;6.292;2023-01-25T13:29:42;6.00;55.90
44537;DHT22;30245;51.966;6.292;2023-01-25T13:32:59;6.00;55.90
44537;DHT22;30245;51.966;6.292;2023-01-25T13:34:59;6.00;55.90
44537;DHT22;30245;51.966;6.292;2023-01-25T13:37:30;5.90;55.90
44537;DHT22;30245;51.966;6.292;2023-01-25T13:40:03;5.80;56.10
44537;DHT22;30245;51.966;6.292;2023-01-25T13:42:35;5.90;56.20
44537;DHT22;30245;51.966;6.292;2023-01-25T13:45:10;5.90;56.00
44537;DHT22;30245;51.966;6.292;2023-01-25T13:47:38;5.90;56.10
44537;DHT22;30245;51.966;6.292;2023-01-25T13:52:57;6.00;56.10
44537;DHT22;30245;51.966;6.292;2023-01-25T13:55:23;6.00;55.80
44537;DHT22;30245;51.966;6.292;2023-01-25T13:57:49;6.00;55.80
44537;DHT22;30245;51.966;6.292;2023-01-25T14:00:16;6.00;55.90
44537;DHT22;30245;51.966;6.292;2023-01-25T14:02:51;6.10;55.80
44537;DHT22;30245;51.966;6.292;2023-01-25T14:05:23;6.10;55.80
44537;DHT22;30245;51.966;6.292;2023-01-25T14:07:52;6.10;55.70
44537;DHT22;30245;51.966;6.292;2023-01-25T14:10:24;6.10;55.70
44537;DHT22;30245;51.966;6.292;2023-01-25T14:12:53;6.00;55.80
44537;DHT22;30245;51.966;6.292;2023-01-25T14:15:30;6.10;55.90
44537;DHT22;30245;51.966;6.292;2023-01-25T14:18:17;6.20;55.80
44537;DHT22;30245;51.966;6.292;2023-01-25T14:20:50;6.20;55.70
44537;DHT22;30245;51.966;6.292;2023-01-25T14:23:26;6.20;55.60
44537;DHT22;30245;51.966;6.292;2023-01-25T14:25:53;6.10;55.70
44537;DHT22;30245;51.966;6.292;2023-01-25T14:28:20;6.10;55.80
44537;DHT22;30245;51.966;6.292;2023-01-25T14:30:53;6.00;55.90
44537;DHT22;30245;51.966;6.292;2023-01-25T14:33:28;6.00;55.90
44537;DHT22;30245;51.966;6.292;2023-01-25T14:36:06;6.00;56.00
44537;DHT22;30245;51.966;6.292;2023-01-25T14:38:34;5.90;56.20
44537;DHT22;30245;51.966;6.292;2023-01-25T14:41:23;5.90;56.20
44537;DHT22;30245;51.966;6.292;2023-01-25T14:43:55;5.90;56.20
44537;DHT22;30245;51.966;6.292;2023-01-25T14:46:32;5.80;56.20
44537;DHT22;30245;51.966;6.292;2023-01-25T14:49:19;5.80;56.30
44537;DHT22;30245;51.966;6.292;2023-01-25T14:52:02;5.70;56.50
44537;DHT22;30245;51.966;6.292;2023-01-25T14:54:32;5.70;56.50
44537;DHT22;30245;51.966;6.292;2023-01-25T14:57:01;5.60;56.50
44537;DHT22;30245;51.966;6.292;2023-01-25T14:59:38;5.60;56.70
44537;DHT22;30245;51.966;6.292;2023-01-25T15:05:17;5.40;56.80
44537;DHT22;30245;51.966;6.292;2023-01-25T15:07:48;5.40;57.00
44537;DHT22;30245;51.966;6.292;2023-01-25T15:10:34;5.40;57.10
44537;DHT22;30245;51.966;6.292;2023-01-25T15:18:53;5.40;57.00
44537;DHT22;30245;51.966;6.292;2023-01-25T15:23:53;5.50;56.70
44537;DHT22;30245;51.966;6.292;2023-01-25T15:26:23;5.50;56.60
44537;DHT22;30245;51.966;6.292;2023-01-25T15:28:52;5.60;56.60
44537;DHT22;30245;51.966;6.292;2023-01-25T15:31:21;5.60;56.60
44537;DHT22;30245;51.966;6.292;2023-01-25T15:33:47;5.60;56.60
44537;DHT22;30245;51.966;6.292;2023-01-25T15:36:14;5.70;56.60
44537;DHT22;30245;51.966;6.292;2023-01-25T15:38:40;5.70;56.40
44537;DHT22;30245;51.966;6.292;2023-01-25T15:41:06;5.80;56.20
44537;DHT22;30245;51.966;6.292;2023-01-25T15:43:32;6.00;56.10
44537;DHT22;30245;51.966;6.292;2023-01-25T15:45:58;5.90;55.90
44537;DHT22;30245;51.966;6.292;2023-01-25T15:48:45;5.90;56.10
44537;DHT22;30245;51.966;6.292;2023-01-25T15:51:12;5.90;56.20
44537;DHT22;30245;51.966;6.292;2023-01-25T15:53:38;6.00;56.20
44537;DHT22;30245;51.966;6.292;2023-01-25T15:56:08;6.00;56.10
44537;DHT22;30245;51.966;6.292;2023-01-25T15:58:38;6.10;56.00
44537;DHT22;30245;51.966;6.292;2023-01-25T16:01:04;6.10;55.90
44537;DHT22;30245;51.966;6.292;2023-01-25T16:03:30;6.10;55.90
44537;DHT22;30245;51.966;6.292;2023-01-25T16:08:42;6.00;56.10
44537;DHT22;30245;51.966;6.292;2023-01-25T16:11:08;6.10;56.20
44537;DHT22;30245;51.966;6.292;2023-01-25T16:13:33;6.10;56.10
44537;DHT22;30245;51.966;6.292;2023-01-25T16:15:59;6.00;56.00
44537;DHT22;30245;51.966;6.292;2023-01-25T16:18:25;6.00;56.20
44537;DHT22;30245;51.966;6.292;2023-01-25T16:20:50;6.00;56.30
44537;DHT22;30245;51.966;6.292;2023-01-25T16:23:16;6.10;56.30
44537;DHT22;30245;51.966;6.292;2023-01-25T16:25:42;6.00;56.20
44537;DHT22;30245;51.966;6.292;2023-01-25T16:28:13;6.00;56.20
44537;DHT22;30245;51.966;6.292;2023-01-25T16:30:39;6.00;56.20
44537;DHT22;30245;51.966;6.292;2023-01-25T16:33:05;6.10;56.20
44537;DHT22;30245;51.966;6.292;2023-01-25T16:35:31;6.10;55.90
44537;DHT22;30245;51.966;6.292;2023-01-25T16:37:56;6.10;55.90
44537;DHT22;30245;51.966;6.292;2023-01-25T16:40:32;6.10;55.90
44537;DHT22;30245;51.966;6.292;2023-01-25T16:43:01;6.10;56.00
44537;DHT22;30245;51.966;6.292;2023-01-25T16:45:27;6.20;55.90
44537;DHT22;30245;51.966;6.292;2023-01-25T16:47:52;6.20;55.80
44537;DHT22;30245;51.966;6.292;2023-01-25T16:50:21;6.20;55.70
44537;DHT22;30245;51.966;6.292;2023-01-25T16:52:47;6.20;55.80
44537;DHT22;30245;51.966;6.292;2023-01-25T16:55:16;6.20;55.90
44537;DHT22;30245;51.966;6.292;2023-01-25T16:57:43;6.20;55.90
44537;DHT22;30245;51.966;6.292;2023-01-25T17:00:11;6.20;55.80
44537;DHT22;30245;51.966;6.292;2023-01-25T17:02:38;6.10;56.00
44537;DHT22;30245;51.966;6.292;2023-01-25T17:05:06;6.00;56.20
44537;DHT22;30245;51.966;6.292;2023-01-25T17:07:33;6.00;56.20
44537;DHT22;30245;51.966;6.292;2023-01-25T17:09:59;6.00;56.20
44537;DHT22;30245;51.966;6.292;2023-01-25T17:12:24;6.10;56.10
44537;DHT22;30245;51.966;6.292;2023-01-25T17:14:51;6.20;56.00
44537;DHT22;30245;51.966;6.292;2023-01-25T17:17:17;6.20;55.80
44537;DHT22;30245;51.966;6.292;2023-01-25T17:19:44;6.20;55.90
44537;DHT22;30245;51.966;6.292;2023-01-25T17:22:10;6.20;55.90
44537;DHT22;30245;51.966;6.292;2023-01-25T17:24:36;6.10;55.90
44537;DHT22;30245;51.966;6.292;2023-01-25T17:27:02;6.10;56.20
44537;DHT22;30245;51.966;6.292;2023-01-25T17:29:29;6.10;56.30
44537;DHT22;30245;51.966;6.292;2023-01-25T17:31:55;6.00;56.20
44537;DHT22;30245;51.966;6.292;2023-01-25T17:34:21;6.10;56.40
44537;DHT22;30245;51.966;6.292;2023-01-25T17:36:48;6.10;56.20
44537;DHT22;30245;51.966;6.292;2023-01-25T17:39:16;6.20;56.10